sensor_id;sensor_type;location;lat;lon;timestamp;P1;durP1;ratioP1;P2;durP2;ratioP2
15266;SDS011;7735;49.144;8.668;2023-07-09T00:00:15;15.02;;;6.80;;
15266;SDS011;7735;49.144;8.668;2023-07-09T00:02:44;8.55;;;4.95;;
15266;SDS011;7735;49.144;8.668;2023-07-09T00:05:13;5.07;;;3.65;;
15266;SDS011;7735;49.144;8.668;2023-07-09T00:07:41;7.93;;;4.07;;
15266;SDS011;7735;49.144;8.668;2023-07-09T00:10:13;8.23;;;3.88;;
15266;SDS011;7735;49.144;8.668;2023-07-09T00:12:42;8.18;;;3.80;;
15266;SDS011;7735;49.144;8.668;2023-07-09T00:15:09;6.60;;;3.80;;
15266;SDS011;7735;49.144;8.668;2023-07-09T00:17:37;4.72;;;3.50;;
15266;SDS011;7735;49.144;8.668;2023-07-09T00:20:06;6.80;;;3.78;;
15266;SDS011;7735;49.144;8.668;2023-07-09T00:22:39;6.07;;;3.60;;
15266;SDS011;7735;49.144;8.668;2023-07-09T00:25:09;5.72;;;3.65;;
15266;SDS011;7735;49.144;8.668;2023-07-09T00:27:38;6.50;;;4.03;;
15266;SDS011;7735;49.144;8.668;2023-07-09T00:30:08;6.00;;;4.27;;
15266;SDS011;7735;49.144;8.668;2023-07-09T00:32:41;8.32;;;3.85;;
15266;SDS011;7735;49.144;8.668;2023-07-09T00:35:09;8.63;;;4.17;;
15266;SDS011;7735;49.144;8.668;2023-07-09T00:37:37;5.30;;;3.65;;
15266;SDS011;7735;49.144;8.668;2023-07-09T00:40:08;7.47;;;3.23;;
15266;SDS011;7735;49.144;8.668;2023-07-09T00:42:42;6.23;;;3.57;;
15266;SDS011;7735;49.144;8.668;2023-07-09T00:47:44;5.83;;;3.47;;
15266;SDS011;7735;49.144;8.668;2023-07-09T00:50:21;9.40;;;4.10;;
15266;SDS011;7735;49.144;8.668;2023-07-09T00:52:57;6.40;;;3.90;;
15266;SDS011;7735;49.144;8.668;2023-07-09T00:55:30;10.00;;;3.50;;
15266;SDS011;7735;49.144;8.668;2023-07-09T00:58:00;4.63;;;3.30;;
15266;SDS011;7735;49.144;8.668;2023-07-09T01:00:30;5.63;;;3.40;;
15266;SDS011;7735;49.144;8.668;2023-07-09T01:03:07;8.93;;;3.57;;
15266;SDS011;7735;49.144;8.668;2023-07-09T01:05:35;6.13;;;3.70;;
15266;SDS011;7735;49.144;8.668;2023-07-09T01:08:05;5.83;;;3.53;;
15266;SDS011;7735;49.144;8.668;2023-07-09T01:10:36;6.17;;;3.50;;
15266;SDS011;7735;49.144;8.668;2023-07-09T01:13:05;7.83;;;3.73;;
15266;SDS011;7735;49.144;8.668;2023-07-09T01:15:33;5.43;;;3.47;;
15266;SDS011;7735;49.144;8.668;2023-07-09T01:18:02;5.35;;;3.83;;
15266;SDS011;7735;49.144;8.668;2023-07-09T01:20:29;7.70;;;3.50;;
15266;SDS011;7735;49.144;8.668;2023-07-09T01:22:57;4.63;;;3.23;;
15266;SDS011;7735;49.144;8.668;2023-07-09T01:25:26;8.00;;;3.80;;
15266;SDS011;7735;49.144;8.668;2023-07-09T01:27:54;5.97;;;3.80;;
15266;SDS011;7735;49.144;8.668;2023-07-09T01:30:22;7.17;;;3.40;;
15266;SDS011;7735;49.144;8.668;2023-07-09T01:32:50;7.13;;;3.93;;
15266;SDS011;7735;49.144;8.668;2023-07-09T01:35:18;5.77;;;3.47;;
15266;SDS011;7735;49.144;8.668;2023-07-09T01:37:46;5.37;;;3.50;;
15266;SDS011;7735;49.144;8.668;2023-07-09T01:40:15;4.90;;;3.47;;
15266;SDS011;7735;49.144;8.668;2023-07-09T01:42:44;5.50;;;3.40;;
15266;SDS011;7735;49.144;8.668;2023-07-09T01:45:11;4.00;;;3.20;;
15266;SDS011;7735;49.144;8.668;2023-07-09T01:47:38;11.00;;;3.60;;
15266;SDS011;7735;49.144;8.668;2023-07-09T01:50:06;7.97;;;4.20;;
15266;SDS011;7735;49.144;8.668;2023-07-09T01:52:34;4.50;;;3.10;;
15266;SDS011;7735;49.144;8.668;2023-07-09T01:55:04;6.73;;;3.57;;
15266;SDS011;7735;49.144;8.668;2023-07-09T01:57:33;5.10;;;3.60;;
15266;SDS011;7735;49.144;8.668;2023-07-09T02:00:00;6.17;;;3.50;;
15266;SDS011;7735;49.144;8.668;2023-07-09T02:02:30;8.63;;;3.90;;
15266;SDS011;7735;49.144;8.668;2023-07-09T02:04:57;6.03;;;3.80;;
15266;SDS011;7735;49.144;8.668;2023-07-09T02:07:25;4.90;;;3.40;;
15266;SDS011;7735;49.144;8.668;2023-07-09T02:09:52;6.50;;;3.30;;
15266;SDS011;7735;49.144;8.668;2023-07-09T02:12:19;6.40;;;3.90;;
15266;SDS011;7735;49.144;8.668;2023-07-09T02:14:48;7.67;;;3.67;;
15266;SDS011;7735;49.144;8.668;2023-07-09T02:17:15;4.80;;;3.60;;
15266;SDS011;7735;49.144;8.668;2023-07-09T02:19:42;6.50;;;3.60;;
15266;SDS011;7735;49.144;8.668;2023-07-09T02:22:09;7.57;;;3.80;;
15266;SDS011;7735;49.144;8.668;2023-07-09T02:24:36;5.90;;;3.43;;
15266;SDS011;7735;49.144;8.668;2023-07-09T02:27:05;5.60;;;3.30;;
15266;SDS011;7735;49.144;8.668;2023-07-09T02:29:33;8.00;;;4.07;;
15266;SDS011;7735;49.144;8.668;2023-07-09T02:32:02;4.80;;;3.37;;
15266;SDS011;7735;49.144;8.668;2023-07-09T02:34:29;7.00;;;3.93;;
15266;SDS011;7735;49.144;8.668;2023-07-09T02:36:57;5.77;;;3.70;;
15266;SDS011;7735;49.144;8.668;2023-07-09T02:39:25;7.17;;;3.33;;
15266;SDS011;7735;49.144;8.668;2023-07-09T02:41:52;6.87;;;4.10;;
15266;SDS011;7735;49.144;8.668;2023-07-09T02:44:19;6.40;;;3.80;;
15266;SDS011;7735;49.144;8.668;2023-07-09T02:46:46;6.17;;;3.47;;
15266;SDS011;7735;49.144;8.668;2023-07-09T02:49:14;6.43;;;3.80;;
15266;SDS011;7735;49.144;8.668;2023-07-09T02:51:41;7.17;;;3.63;;
15266;SDS011;7735;49.144;8.668;2023-07-09T02:54:08;7.47;;;3.70;;
15266;SDS011;7735;49.144;8.668;2023-07-09T02:56:35;5.93;;;4.33;;
15266;SDS011;7735;49.144;8.668;2023-07-09T02:59:02;7.73;;;3.40;;
15266;SDS011;7735;49.144;8.668;2023-07-09T03:01:29;6.37;;;3.90;;
15266;SDS011;7735;49.144;8.668;2023-07-09T03:03:57;7.13;;;3.57;;
15266;SDS011;7735;49.144;8.668;2023-07-09T03:06:26;5.20;;;3.80;;
15266;SDS011;7735;49.144;8.668;2023-07-09T03:08:53;6.40;;;3.43;;
15266;SDS011;7735;49.144;8.668;2023-07-09T03:11:20;5.17;;;3.37;;
15266;SDS011;7735;49.144;8.668;2023-07-09T03:13:47;5.50;;;3.30;;
15266;SDS011;7735;49.144;8.668;2023-07-09T03:16:14;4.57;;;3.17;;
15266;SDS011;7735;49.144;8.668;2023-07-09T03:18:41;5.43;;;3.80;;
15266;SDS011;7735;49.144;8.668;2023-07-09T03:21:08;6.57;;;3.60;;
15266;SDS011;7735;49.144;8.668;2023-07-09T03:23:36;6.83;;;3.53;;
15266;SDS011;7735;49.144;8.668;2023-07-09T03:26:03;6.90;;;4.23;;
15266;SDS011;7735;49.144;8.668;2023-07-09T03:28:30;9.20;;;3.90;;
15266;SDS011;7735;49.144;8.668;2023-07-09T03:30:57;6.47;;;3.40;;
15266;SDS011;7735;49.144;8.668;2023-07-09T03:33:24;5.73;;;3.60;;
15266;SDS011;7735;49.144;8.668;2023-07-09T03:35:51;8.57;;;3.77;;
15266;SDS011;7735;49.144;8.668;2023-07-09T03:38:18;5.47;;;3.67;;
15266;SDS011;7735;49.144;8.668;2023-07-09T03:40:49;6.23;;;3.77;;
15266;SDS011;7735;49.144;8.668;2023-07-09T03:43:16;4.17;;;3.20;;
15266;SDS011;7735;49.144;8.668;2023-07-09T03:45:43;6.13;;;3.63;;
15266;SDS011;7735;49.144;8.668;2023-07-09T03:48:10;6.73;;;3.67;;
15266;SDS011;7735;49.144;8.668;2023-07-09T03:50:37;7.30;;;3.90;;
15266;SDS011;7735;49.144;8.668;2023-07-09T03:53:04;8.63;;;3.77;;
15266;SDS011;7735;49.144;8.668;2023-07-09T03:55:31;4.83;;;3.73;;
15266;SDS011;7735;49.144;8.668;2023-07-09T03:57:59;6.27;;;3.50;;
15266;SDS011;7735;49.144;8.668;2023-07-09T04:00:27;5.63;;;3.27;;
15266;SDS011;7735;49.144;8.668;2023-07-09T04:02:54;8.27;;;3.27;;
15266;SDS011;7735;49.144;8.668;2023-07-09T04:05:21;4.67;;;3.53;;
15266;SDS011;7735;49.144;8.668;2023-07-09T04:07:48;7.13;;;3.67;;
15266;SDS011;7735;49.144;8.668;2023-07-09T04:10:15;4.77;;;3.43;;
15266;SDS011;7735;49.144;8.668;2023-07-09T04:12:43;6.27;;;3.80;;
15266;SDS011;7735;49.144;8.668;2023-07-09T04:15:11;7.23;;;4.07;;
15266;SDS011;7735;49.144;8.668;2023-07-09T04:17:39;5.80;;;3.73;;
15266;SDS011;7735;49.144;8.668;2023-07-09T04:20:06;6.60;;;3.10;;
15266;SDS011;7735;49.144;8.668;2023-07-09T04:22:34;5.80;;;3.23;;
15266;SDS011;7735;49.144;8.668;2023-07-09T04:25:01;6.03;;;3.80;;
15266;SDS011;7735;49.144;8.668;2023-07-09T04:27:29;5.47;;;3.70;;
15266;SDS011;7735;49.144;8.668;2023-07-09T04:29:56;6.00;;;3.80;;
15266;SDS011;7735;49.144;8.668;2023-07-09T04:32:24;4.77;;;3.50;;
15266;SDS011;7735;49.144;8.668;2023-07-09T04:34:51;9.67;;;3.90;;
15266;SDS011;7735;49.144;8.668;2023-07-09T04:37:18;5.30;;;3.77;;
15266;SDS011;7735;49.144;8.668;2023-07-09T04:39:45;5.27;;;3.90;;
15266;SDS011;7735;49.144;8.668;2023-07-09T04:42:13;5.07;;;3.77;;
15266;SDS011;7735;49.144;8.668;2023-07-09T04:44:41;8.03;;;4.20;;
15266;SDS011;7735;49.144;8.668;2023-07-09T04:47:09;10.43;;;3.87;;
15266;SDS011;7735;49.144;8.668;2023-07-09T04:49:38;8.50;;;3.90;;
15266;SDS011;7735;49.144;8.668;2023-07-09T04:52:05;10.23;;;3.73;;
15266;SDS011;7735;49.144;8.668;2023-07-09T04:54:36;7.97;;;4.03;;
15266;SDS011;7735;49.144;8.668;2023-07-09T04:57:04;4.80;;;3.77;;
15266;SDS011;7735;49.144;8.668;2023-07-09T04:59:31;10.00;;;4.10;;
15266;SDS011;7735;49.144;8.668;2023-07-09T05:01:58;6.23;;;3.57;;
15266;SDS011;7735;49.144;8.668;2023-07-09T05:04:25;8.53;;;3.63;;
15266;SDS011;7735;49.144;8.668;2023-07-09T05:06:53;7.77;;;4.43;;
15266;SDS011;7735;49.144;8.668;2023-07-09T05:09:20;5.70;;;3.67;;
15266;SDS011;7735;49.144;8.668;2023-07-09T05:11:48;7.73;;;4.33;;
15266;SDS011;7735;49.144;8.668;2023-07-09T05:14:15;6.30;;;4.10;;
15266;SDS011;7735;49.144;8.668;2023-07-09T05:16:42;6.50;;;3.83;;
15266;SDS011;7735;49.144;8.668;2023-07-09T05:19:09;9.33;;;3.87;;
15266;SDS011;7735;49.144;8.668;2023-07-09T05:21:42;5.57;;;3.90;;
15266;SDS011;7735;49.144;8.668;2023-07-09T05:24:10;6.33;;;3.63;;
15266;SDS011;7735;49.144;8.668;2023-07-09T05:26:37;8.20;;;3.43;;
15266;SDS011;7735;49.144;8.668;2023-07-09T05:29:06;4.37;;;3.60;;
15266;SDS011;7735;49.144;8.668;2023-07-09T05:31:33;4.77;;;3.37;;
15266;SDS011;7735;49.144;8.668;2023-07-09T05:34:01;5.83;;;3.77;;
15266;SDS011;7735;49.144;8.668;2023-07-09T05:36:28;8.23;;;4.00;;
15266;SDS011;7735;49.144;8.668;2023-07-09T05:38:55;6.60;;;4.00;;
15266;SDS011;7735;49.144;8.668;2023-07-09T05:41:23;6.67;;;3.57;;
15266;SDS011;7735;49.144;8.668;2023-07-09T05:43:50;5.77;;;3.73;;
15266;SDS011;7735;49.144;8.668;2023-07-09T05:46:18;7.77;;;4.00;;
15266;SDS011;7735;49.144;8.668;2023-07-09T05:48:45;5.50;;;3.93;;
15266;SDS011;7735;49.144;8.668;2023-07-09T05:51:12;5.73;;;3.70;;
15266;SDS011;7735;49.144;8.668;2023-07-09T05:53:38;5.57;;;3.30;;
15266;SDS011;7735;49.144;8.668;2023-07-09T05:56:05;7.23;;;3.63;;
15266;SDS011;7735;49.144;8.668;2023-07-09T05:58:34;4.87;;;3.50;;
15266;SDS011;7735;49.144;8.668;2023-07-09T06:01:01;8.03;;;3.50;;
15266;SDS011;7735;49.144;8.668;2023-07-09T06:03:28;5.07;;;3.60;;
15266;SDS011;7735;49.144;8.668;2023-07-09T06:05:55;5.17;;;3.67;;
15266;SDS011;7735;49.144;8.668;2023-07-09T06:08:25;4.03;;;3.03;;
15266;SDS011;7735;49.144;8.668;2023-07-09T06:10:56;6.37;;;3.77;;
15266;SDS011;7735;49.144;8.668;2023-07-09T06:23:53;5.77;;;3.20;;
15266;SDS011;7735;49.144;8.668;2023-07-09T06:26:19;4.30;;;3.07;;
15266;SDS011;7735;49.144;8.668;2023-07-09T06:28:46;4.40;;;2.80;;
15266;SDS011;7735;49.144;8.668;2023-07-09T06:31:13;9.13;;;3.43;;
15266;SDS011;7735;49.144;8.668;2023-07-09T06:33:40;6.37;;;3.40;;
15266;SDS011;7735;49.144;8.668;2023-07-09T06:36:06;4.97;;;3.70;;
15266;SDS011;7735;49.144;8.668;2023-07-09T06:38:34;7.25;;;5.28;;
15266;SDS011;7735;49.144;8.668;2023-07-09T06:41:03;7.63;;;3.67;;
15266;SDS011;7735;49.144;8.668;2023-07-09T06:43:30;5.27;;;3.73;;
15266;SDS011;7735;49.144;8.668;2023-07-09T06:45:58;5.53;;;3.80;;
15266;SDS011;7735;49.144;8.668;2023-07-09T06:48:26;4.80;;;3.40;;
15266;SDS011;7735;49.144;8.668;2023-07-09T06:50:55;4.80;;;3.40;;
15266;SDS011;7735;49.144;8.668;2023-07-09T06:53:23;6.07;;;3.47;;
15266;SDS011;7735;49.144;8.668;2023-07-09T06:55:50;6.73;;;3.53;;
15266;SDS011;7735;49.144;8.668;2023-07-09T06:58:21;7.70;;;3.53;;
15266;SDS011;7735;49.144;8.668;2023-07-09T07:00:50;7.77;;;4.30;;
15266;SDS011;7735;49.144;8.668;2023-07-09T07:03:18;8.13;;;3.90;;
15266;SDS011;7735;49.144;8.668;2023-07-09T07:05:45;5.57;;;3.60;;
15266;SDS011;7735;49.144;8.668;2023-07-09T07:08:14;6.27;;;3.90;;
15266;SDS011;7735;49.144;8.668;2023-07-09T07:10:43;5.23;;;3.53;;
15266;SDS011;7735;49.144;8.668;2023-07-09T07:13:10;6.37;;;3.50;;
15266;SDS011;7735;49.144;8.668;2023-07-09T07:15:38;7.70;;;4.80;;
15266;SDS011;7735;49.144;8.668;2023-07-09T07:18:06;5.23;;;3.60;;
15266;SDS011;7735;49.144;8.668;2023-07-09T07:20:33;7.63;;;4.03;;
15266;SDS011;7735;49.144;8.668;2023-07-09T07:23:00;5.70;;;3.83;;
15266;SDS011;7735;49.144;8.668;2023-07-09T07:25:26;6.47;;;3.93;;
15266;SDS011;7735;49.144;8.668;2023-07-09T07:27:55;6.47;;;3.90;;
15266;SDS011;7735;49.144;8.668;2023-07-09T07:30:22;4.80;;;3.53;;
15266;SDS011;7735;49.144;8.668;2023-07-09T07:32:50;7.17;;;3.67;;
15266;SDS011;7735;49.144;8.668;2023-07-09T07:35:17;5.43;;;3.57;;
15266;SDS011;7735;49.144;8.668;2023-07-09T07:37:44;6.90;;;3.70;;
15266;SDS011;7735;49.144;8.668;2023-07-09T07:40:11;6.27;;;3.90;;
15266;SDS011;7735;49.144;8.668;2023-07-09T07:42:38;5.40;;;3.53;;
15266;SDS011;7735;49.144;8.668;2023-07-09T07:45:05;4.43;;;3.13;;
15266;SDS011;7735;49.144;8.668;2023-07-09T07:47:33;5.90;;;3.53;;
15266;SDS011;7735;49.144;8.668;2023-07-09T07:50:01;5.40;;;3.90;;
15266;SDS011;7735;49.144;8.668;2023-07-09T07:52:28;4.97;;;3.35;;
15266;SDS011;7735;49.144;8.668;2023-07-09T07:54:57;5.63;;;3.17;;
15266;SDS011;7735;49.144;8.668;2023-07-09T07:57:24;4.55;;;3.30;;
15266;SDS011;7735;49.144;8.668;2023-07-09T07:59:52;5.00;;;3.60;;
15266;SDS011;7735;49.144;8.668;2023-07-09T08:02:19;7.10;;;3.57;;
15266;SDS011;7735;49.144;8.668;2023-07-09T08:04:46;14.10;;;5.60;;
15266;SDS011;7735;49.144;8.668;2023-07-09T08:07:14;4.50;;;3.10;;
15266;SDS011;7735;49.144;8.668;2023-07-09T08:09:42;5.82;;;3.50;;
15266;SDS011;7735;49.144;8.668;2023-07-09T08:12:09;6.35;;;3.60;;
15266;SDS011;7735;49.144;8.668;2023-07-09T08:14:37;5.43;;;3.92;;
15266;SDS011;7735;49.144;8.668;2023-07-09T08:17:04;5.30;;;3.20;;
15266;SDS011;7735;49.144;8.668;2023-07-09T08:19:32;5.82;;;3.75;;
15266;SDS011;7735;49.144;8.668;2023-07-09T08:22:09;4.82;;;3.40;;
15266;SDS011;7735;49.144;8.668;2023-07-09T08:24:37;6.28;;;3.95;;
15266;SDS011;7735;49.144;8.668;2023-07-09T08:27:11;5.50;;;3.60;;
15266;SDS011;7735;49.144;8.668;2023-07-09T08:29:38;4.95;;;3.38;;
15266;SDS011;7735;49.144;8.668;2023-07-09T08:32:07;6.15;;;3.40;;
15266;SDS011;7735;49.144;8.668;2023-07-09T08:34:34;5.75;;;3.25;;
15266;SDS011;7735;49.144;8.668;2023-07-09T08:37:02;7.55;;;3.50;;
15266;SDS011;7735;49.144;8.668;2023-07-09T08:39:29;4.50;;;3.38;;
15266;SDS011;7735;49.144;8.668;2023-07-09T08:41:59;5.32;;;3.67;;
15266;SDS011;7735;49.144;8.668;2023-07-09T08:44:41;6.32;;;3.15;;
15266;SDS011;7735;49.144;8.668;2023-07-09T08:47:20;5.40;;;3.17;;
15266;SDS011;7735;49.144;8.668;2023-07-09T08:49:55;3.88;;;3.17;;
15266;SDS011;7735;49.144;8.668;2023-07-09T08:52:26;5.35;;;3.17;;
15266;SDS011;7735;49.144;8.668;2023-07-09T08:54:57;5.00;;;2.83;;
15266;SDS011;7735;49.144;8.668;2023-07-09T08:57:34;7.40;;;3.80;;
15266;SDS011;7735;49.144;8.668;2023-07-09T09:00:07;8.25;;;3.50;;
15266;SDS011;7735;49.144;8.668;2023-07-09T09:02:44;4.90;;;2.75;;
15266;SDS011;7735;49.144;8.668;2023-07-09T09:05:18;6.15;;;3.92;;
15266;SDS011;7735;49.144;8.668;2023-07-09T09:07:48;7.63;;;3.33;;
15266;SDS011;7735;49.144;8.668;2023-07-09T09:10:21;5.80;;;3.05;;
15266;SDS011;7735;49.144;8.668;2023-07-09T09:12:59;4.38;;;3.00;;
15266;SDS011;7735;49.144;8.668;2023-07-09T09:15:32;5.10;;;3.22;;
15266;SDS011;7735;49.144;8.668;2023-07-09T09:18:01;6.55;;;3.50;;
15266;SDS011;7735;49.144;8.668;2023-07-09T09:20:48;6.38;;;3.70;;
15266;SDS011;7735;49.144;8.668;2023-07-09T09:23:21;6.57;;;3.00;;
15266;SDS011;7735;49.144;8.668;2023-07-09T09:25:55;6.72;;;3.08;;
15266;SDS011;7735;49.144;8.668;2023-07-09T09:28:26;5.18;;;3.40;;
15266;SDS011;7735;49.144;8.668;2023-07-09T09:30:53;6.65;;;3.25;;
15266;SDS011;7735;49.144;8.668;2023-07-09T09:33:36;6.57;;;3.95;;
15266;SDS011;7735;49.144;8.668;2023-07-09T09:38:55;6.13;;;3.35;;
15266;SDS011;7735;49.144;8.668;2023-07-09T09:41:22;6.95;;;3.30;;
15266;SDS011;7735;49.144;8.668;2023-07-09T09:43:52;7.50;;;5.43;;
15266;SDS011;7735;49.144;8.668;2023-07-09T09:46:21;4.93;;;3.20;;
15266;SDS011;7735;49.144;8.668;2023-07-09T09:48:53;4.15;;;3.15;;
15266;SDS011;7735;49.144;8.668;2023-07-09T09:51:22;5.68;;;3.28;;
15266;SDS011;7735;49.144;8.668;2023-07-09T09:53:50;6.55;;;3.35;;
15266;SDS011;7735;49.144;8.668;2023-07-09T09:56:19;5.50;;;3.20;;
15266;SDS011;7735;49.144;8.668;2023-07-09T09:58:53;4.88;;;3.40;;
15266;SDS011;7735;49.144;8.668;2023-07-09T10:01:21;5.05;;;3.03;;
15266;SDS011;7735;49.144;8.668;2023-07-09T10:03:55;8.50;;;3.10;;
15266;SDS011;7735;49.144;8.668;2023-07-09T10:06:25;5.80;;;2.97;;
15266;SDS011;7735;49.144;8.668;2023-07-09T10:09:01;6.45;;;3.10;;
15266;SDS011;7735;49.144;8.668;2023-07-09T10:11:32;3.65;;;2.85;;
15266;SDS011;7735;49.144;8.668;2023-07-09T10:14:14;5.22;;;2.90;;
15266;SDS011;7735;49.144;8.668;2023-07-09T10:16:52;4.15;;;2.65;;
15266;SDS011;7735;49.144;8.668;2023-07-09T10:19:29;4.43;;;2.85;;
15266;SDS011;7735;49.144;8.668;2023-07-09T10:22:17;5.45;;;2.63;;
15266;SDS011;7735;49.144;8.668;2023-07-09T10:24:51;7.47;;;3.08;;
15266;SDS011;7735;49.144;8.668;2023-07-09T10:27:28;4.50;;;3.08;;
15266;SDS011;7735;49.144;8.668;2023-07-09T10:30:15;4.10;;;3.30;;
15266;SDS011;7735;49.144;8.668;2023-07-09T10:33:01;4.80;;;3.47;;
15266;SDS011;7735;49.144;8.668;2023-07-09T10:35:37;4.53;;;3.35;;
15266;SDS011;7735;49.144;8.668;2023-07-09T10:38:15;3.67;;;2.45;;
15266;SDS011;7735;49.144;8.668;2023-07-09T10:40:53;3.53;;;2.70;;
15266;SDS011;7735;49.144;8.668;2023-07-09T10:43:24;5.35;;;3.08;;
15266;SDS011;7735;49.144;8.668;2023-07-09T10:45:59;4.53;;;3.20;;
15266;SDS011;7735;49.144;8.668;2023-07-09T10:48:33;2.83;;;2.38;;
15266;SDS011;7735;49.144;8.668;2023-07-09T10:51:04;5.13;;;3.40;;
15266;SDS011;7735;49.144;8.668;2023-07-09T10:53:36;3.55;;;3.00;;
15266;SDS011;7735;49.144;8.668;2023-07-09T10:56:10;4.65;;;3.58;;
15266;SDS011;7735;49.144;8.668;2023-07-09T10:58:39;4.72;;;3.25;;
15266;SDS011;7735;49.144;8.668;2023-07-09T11:01:14;5.78;;;3.00;;
15266;SDS011;7735;49.144;8.668;2023-07-09T11:03:42;5.55;;;3.13;;
15266;SDS011;7735;49.144;8.668;2023-07-09T11:06:16;4.90;;;3.35;;
15266;SDS011;7735;49.144;8.668;2023-07-09T11:08:47;4.28;;;3.33;;
15266;SDS011;7735;49.144;8.668;2023-07-09T11:11:20;6.32;;;3.28;;
15266;SDS011;7735;49.144;8.668;2023-07-09T11:13:55;3.75;;;2.88;;
15266;SDS011;7735;49.144;8.668;2023-07-09T11:16:33;4.68;;;2.90;;
15266;SDS011;7735;49.144;8.668;2023-07-09T11:19:10;4.88;;;2.72;;
15266;SDS011;7735;49.144;8.668;2023-07-09T11:21:44;5.15;;;2.58;;
15266;SDS011;7735;49.144;8.668;2023-07-09T11:24:31;5.13;;;3.08;;
15266;SDS011;7735;49.144;8.668;2023-07-09T11:26:59;4.80;;;2.88;;
15266;SDS011;7735;49.144;8.668;2023-07-09T11:29:27;5.05;;;2.60;;
15266;SDS011;7735;49.144;8.668;2023-07-09T11:32:06;5.40;;;2.80;;
15266;SDS011;7735;49.144;8.668;2023-07-09T11:34:34;3.58;;;2.47;;
15266;SDS011;7735;49.144;8.668;2023-07-09T11:37:12;4.20;;;2.83;;
15266;SDS011;7735;49.144;8.668;2023-07-09T11:39:44;6.05;;;2.85;;
15266;SDS011;7735;49.144;8.668;2023-07-09T11:42:23;5.30;;;2.72;;
15266;SDS011;7735;49.144;8.668;2023-07-09T11:45:00;3.63;;;2.63;;
15266;SDS011;7735;49.144;8.668;2023-07-09T11:47:34;4.40;;;2.72;;
15266;SDS011;7735;49.144;8.668;2023-07-09T11:50:06;5.57;;;2.65;;
15266;SDS011;7735;49.144;8.668;2023-07-09T11:52:53;6.05;;;2.85;;
15266;SDS011;7735;49.144;8.668;2023-07-09T11:55:25;4.87;;;2.83;;
15266;SDS011;7735;49.144;8.668;2023-07-09T11:57:54;7.05;;;2.70;;
15266;SDS011;7735;49.144;8.668;2023-07-09T12:00:22;4.65;;;2.78;;
15266;SDS011;7735;49.144;8.668;2023-07-09T12:02:50;3.85;;;2.70;;
15266;SDS011;7735;49.144;8.668;2023-07-09T12:05:19;3.13;;;2.33;;
15266;SDS011;7735;49.144;8.668;2023-07-09T12:07:47;5.05;;;2.75;;
15266;SDS011;7735;49.144;8.668;2023-07-09T12:10:18;4.40;;;2.22;;
15266;SDS011;7735;49.144;8.668;2023-07-09T12:12:47;3.53;;;2.72;;
15266;SDS011;7735;49.144;8.668;2023-07-09T12:15:17;5.05;;;2.50;;
15266;SDS011;7735;49.144;8.668;2023-07-09T12:17:56;4.85;;;2.80;;
15266;SDS011;7735;49.144;8.668;2023-07-09T12:20:24;4.85;;;2.67;;
15266;SDS011;7735;49.144;8.668;2023-07-09T12:22:53;3.63;;;2.63;;
15266;SDS011;7735;49.144;8.668;2023-07-09T12:25:22;5.43;;;2.78;;
15266;SDS011;7735;49.144;8.668;2023-07-09T12:27:50;5.47;;;2.67;;
15266;SDS011;7735;49.144;8.668;2023-07-09T12:30:17;5.32;;;2.83;;
15266;SDS011;7735;49.144;8.668;2023-07-09T12:32:45;6.32;;;2.65;;
15266;SDS011;7735;49.144;8.668;2023-07-09T12:35:16;3.92;;;2.60;;
15266;SDS011;7735;49.144;8.668;2023-07-09T12:37:44;7.65;;;3.00;;
15266;SDS011;7735;49.144;8.668;2023-07-09T12:40:13;6.30;;;2.80;;
15266;SDS011;7735;49.144;8.668;2023-07-09T12:42:42;5.97;;;3.00;;
15266;SDS011;7735;49.144;8.668;2023-07-09T12:45:13;4.10;;;3.10;;
15266;SDS011;7735;49.144;8.668;2023-07-09T12:47:42;6.43;;;3.08;;
15266;SDS011;7735;49.144;8.668;2023-07-09T12:50:29;6.80;;;3.40;;
15266;SDS011;7735;49.144;8.668;2023-07-09T12:53:01;4.90;;;3.17;;
15266;SDS011;7735;49.144;8.668;2023-07-09T12:55:29;3.72;;;2.70;;
15266;SDS011;7735;49.144;8.668;2023-07-09T12:58:07;5.78;;;2.55;;
15266;SDS011;7735;49.144;8.668;2023-07-09T13:00:36;5.68;;;2.97;;
15266;SDS011;7735;49.144;8.668;2023-07-09T13:03:03;5.78;;;2.83;;
15266;SDS011;7735;49.144;8.668;2023-07-09T13:05:39;6.13;;;2.53;;
15266;SDS011;7735;49.144;8.668;2023-07-09T13:08:21;5.45;;;2.85;;
15266;SDS011;7735;49.144;8.668;2023-07-09T13:10:48;7.72;;;3.05;;
15266;SDS011;7735;49.144;8.668;2023-07-09T13:13:17;4.47;;;2.88;;
15266;SDS011;7735;49.144;8.668;2023-07-09T13:15:47;8.00;;;3.00;;
15266;SDS011;7735;49.144;8.668;2023-07-09T13:18:15;4.03;;;2.58;;
15266;SDS011;7735;49.144;8.668;2023-07-09T13:20:44;6.82;;;3.42;;
15266;SDS011;7735;49.144;8.668;2023-07-09T13:23:14;7.03;;;2.83;;
15266;SDS011;7735;49.144;8.668;2023-07-09T13:25:42;6.03;;;2.95;;
15266;SDS011;7735;49.144;8.668;2023-07-09T13:28:11;4.10;;;2.67;;
15266;SDS011;7735;49.144;8.668;2023-07-09T13:30:42;6.45;;;3.85;;
15266;SDS011;7735;49.144;8.668;2023-07-09T13:33:12;3.78;;;2.90;;
15266;SDS011;7735;49.144;8.668;2023-07-09T13:35:40;4.90;;;2.90;;
15266;SDS011;7735;49.144;8.668;2023-07-09T13:38:15;4.97;;;3.03;;
15266;SDS011;7735;49.144;8.668;2023-07-09T13:40:43;5.72;;;2.58;;
15266;SDS011;7735;49.144;8.668;2023-07-09T13:43:12;7.78;;;2.70;;
15266;SDS011;7735;49.144;8.668;2023-07-09T13:45:39;4.22;;;2.72;;
15266;SDS011;7735;49.144;8.668;2023-07-09T13:48:09;4.68;;;3.03;;
15266;SDS011;7735;49.144;8.668;2023-07-09T13:50:39;5.60;;;2.83;;
15266;SDS011;7735;49.144;8.668;2023-07-09T13:53:09;6.22;;;2.70;;
15266;SDS011;7735;49.144;8.668;2023-07-09T13:55:49;4.88;;;2.55;;
15266;SDS011;7735;49.144;8.668;2023-07-09T13:58:18;4.78;;;2.72;;
15266;SDS011;7735;49.144;8.668;2023-07-09T14:00:47;3.58;;;2.53;;
15266;SDS011;7735;49.144;8.668;2023-07-09T14:03:17;4.72;;;2.55;;
15266;SDS011;7735;49.144;8.668;2023-07-09T14:05:46;3.47;;;2.50;;
15266;SDS011;7735;49.144;8.668;2023-07-09T14:08:15;4.13;;;2.58;;
15266;SDS011;7735;49.144;8.668;2023-07-09T14:10:44;3.83;;;2.70;;
15266;SDS011;7735;49.144;8.668;2023-07-09T14:13:11;5.00;;;2.80;;
15266;SDS011;7735;49.144;8.668;2023-07-09T14:15:40;5.03;;;2.92;;
15266;SDS011;7735;49.144;8.668;2023-07-09T14:18:09;5.22;;;2.90;;
15266;SDS011;7735;49.144;8.668;2023-07-09T14:20:38;5.97;;;3.00;;
15266;SDS011;7735;49.144;8.668;2023-07-09T14:23:05;5.05;;;2.88;;
15266;SDS011;7735;49.144;8.668;2023-07-09T14:25:37;4.55;;;2.97;;
15266;SDS011;7735;49.144;8.668;2023-07-09T14:28:08;4.30;;;2.70;;
15266;SDS011;7735;49.144;8.668;2023-07-09T14:30:36;5.72;;;3.20;;
15266;SDS011;7735;49.144;8.668;2023-07-09T14:33:04;5.00;;;2.58;;
15266;SDS011;7735;49.144;8.668;2023-07-09T14:35:34;3.63;;;2.65;;
15266;SDS011;7735;49.144;8.668;2023-07-09T14:38:03;4.35;;;2.75;;
15266;SDS011;7735;49.144;8.668;2023-07-09T14:40:43;3.97;;;2.60;;
15266;SDS011;7735;49.144;8.668;2023-07-09T14:43:11;4.00;;;2.95;;
15266;SDS011;7735;49.144;8.668;2023-07-09T14:45:38;3.55;;;2.78;;
15266;SDS011;7735;49.144;8.668;2023-07-09T14:48:08;4.93;;;3.13;;
15266;SDS011;7735;49.144;8.668;2023-07-09T14:50:36;4.70;;;3.08;;
15266;SDS011;7735;49.144;8.668;2023-07-09T14:53:03;5.40;;;2.70;;
15266;SDS011;7735;49.144;8.668;2023-07-09T14:55:37;4.35;;;2.80;;
15266;SDS011;7735;49.144;8.668;2023-07-09T14:58:08;4.47;;;2.85;;
15266;SDS011;7735;49.144;8.668;2023-07-09T15:00:41;3.58;;;2.72;;
15266;SDS011;7735;49.144;8.668;2023-07-09T15:03:09;5.40;;;2.90;;
15266;SDS011;7735;49.144;8.668;2023-07-09T15:05:36;5.35;;;3.03;;
15266;SDS011;7735;49.144;8.668;2023-07-09T15:08:06;5.40;;;3.50;;
15266;SDS011;7735;49.144;8.668;2023-07-09T15:10:38;6.05;;;3.45;;
15266;SDS011;7735;49.144;8.668;2023-07-09T15:13:07;9.57;;;3.30;;
15266;SDS011;7735;49.144;8.668;2023-07-09T15:15:43;4.03;;;2.90;;
15266;SDS011;7735;49.144;8.668;2023-07-09T15:18:10;5.57;;;3.28;;
15266;SDS011;7735;49.144;8.668;2023-07-09T15:20:38;4.50;;;3.38;;
15266;SDS011;7735;49.144;8.668;2023-07-09T15:23:08;5.88;;;3.05;;
15266;SDS011;7735;49.144;8.668;2023-07-09T15:25:37;4.38;;;3.00;;
15266;SDS011;7735;49.144;8.668;2023-07-09T15:28:04;5.45;;;3.42;;
15266;SDS011;7735;49.144;8.668;2023-07-09T15:30:32;7.22;;;2.80;;